createdAt,value
2022-11-24T00:01:32.965Z,98.04
2022-11-24T00:04:04.076Z,97.82
2022-11-24T00:06:36.277Z,97.63
2022-11-24T00:09:06.001Z,97.32
2022-11-24T00:11:37.748Z,97.20
2022-11-24T00:14:07.572Z,97.21
2022-11-24T00:16:37.774Z,96.92
2022-11-24T00:19:09.886Z,96.88
2022-11-24T00:21:39.392Z,96.75
2022-11-24T00:24:12.344Z,97.09
2022-11-24T00:26:41.376Z,96.95
2022-11-24T00:29:10.522Z,96.95
2022-11-24T00:31:41.411Z,96.97
2022-11-24T00:34:14.854Z,97.11
2022-11-24T00:36:43.861Z,97.07
2022-11-24T00:39:15.237Z,96.85
2022-11-24T00:41:45.958Z,96.98
2022-11-24T00:44:14.856Z,96.83
2022-11-24T00:46:44.018Z,96.69
2022-11-24T00:49:13.233Z,96.49
2022-11-24T00:51:42.632Z,96.47
2022-11-24T00:54:11.642Z,96.59
2022-11-24T00:56:41.209Z,96.48
2022-11-24T00:59:11.141Z,96.53
2022-11-24T01:01:39.969Z,96.62
2022-11-24T01:04:09.131Z,96.82
2022-11-24T01:06:38.011Z,96.68
2022-11-24T01:09:07.115Z,97.00
2022-11-24T01:11:55.563Z,96.62
2022-11-24T01:14:26.349Z,96.57
2022-11-24T01:16:57.840Z,96.42
2022-11-24T01:19:26.622Z,96.52
2022-11-24T01:21:55.531Z,96.43
2022-11-24T01:24:24.730Z,96.66
2022-11-24T01:26:54.841Z,96.84
2022-11-24T01:29:23.916Z,96.61
2022-11-24T01:31:53.252Z,96.68
2022-11-24T01:34:22.651Z,96.78
2022-11-24T01:36:52.651Z,96.96
2022-11-24T01:39:21.243Z,97.04
2022-11-24T01:41:50.222Z,96.97
2022-11-24T01:44:27.731Z,96.62
2022-11-24T01:47:04.180Z,96.82
2022-11-24T01:49:41.662Z,96.72
2022-11-24T01:52:30.879Z,96.30
2022-11-24T01:55:02.871Z,96.11
2022-11-24T01:57:39.446Z,96.14
2022-11-24T02:00:12.413Z,96.44
2022-11-24T02:02:45.317Z,96.76
2022-11-24T02:05:25.812Z,96.91
2022-11-24T02:07:56.667Z,96.79
2022-11-24T02:10:25.659Z,96.88
2022-11-24T02:12:56.196Z,96.91
2022-11-24T02:15:25.580Z,96.94
2022-11-24T02:17:54.774Z,97.13
2022-11-24T02:20:23.537Z,96.82
2022-11-24T02:23:06.910Z,96.49
2022-11-24T02:25:54.320Z,96.56
2022-11-24T02:28:24.913Z,96.97
2022-11-24T02:30:54.575Z,96.41
2022-11-24T02:33:23.211Z,96.71
2022-11-24T02:35:54.006Z,96.95
2022-11-24T02:38:49.054Z,96.84
2022-11-24T02:41:20.686Z,96.75
2022-11-24T02:43:54.617Z,96.60
2022-11-24T02:46:23.646Z,96.68
2022-11-24T02:48:52.521Z,96.87
2022-11-24T02:51:21.881Z,96.81
2022-11-24T02:53:51.519Z,97.11
2022-11-24T02:56:20.197Z,96.82
2022-11-24T02:58:49.076Z,96.86
2022-11-24T03:01:21.025Z,96.89
2022-11-24T03:03:49.837Z,96.72
2022-11-24T03:06:18.640Z,96.68
2022-11-24T03:08:47.430Z,96.44
2022-11-24T03:11:18.477Z,96.85
2022-11-24T03:13:47.358Z,96.91
2022-11-24T03:16:16.061Z,96.98
2022-11-24T03:18:45.038Z,97.03
2022-11-24T03:21:14.647Z,96.90
2022-11-24T03:23:44.257Z,96.68
2022-11-24T03:26:19.284Z,96.80
2022-11-24T03:28:50.842Z,96.67
2022-11-24T03:31:19.328Z,96.89
2022-11-24T03:33:48.001Z,96.84
2022-11-24T03:36:17.301Z,97.08
2022-11-24T03:38:46.318Z,97.19
2022-11-24T03:41:14.861Z,97.23
2022-11-24T03:43:44.307Z,97.14
2022-11-24T03:46:13.309Z,97.13
2022-11-24T03:48:49.512Z,97.08
2022-11-24T03:51:19.127Z,96.88
2022-11-24T03:53:48.035Z,97.21
2022-11-24T03:56:17.020Z,97.22
2022-11-24T03:58:46.518Z,97.37
2022-11-24T04:01:15.513Z,97.71
2022-11-24T04:03:47.683Z,97.72
2022-11-24T04:06:16.680Z,97.68
2022-11-24T04:08:45.362Z,97.35
2022-11-24T04:11:34.118Z,97.55
2022-11-24T04:14:02.928Z,97.46
2022-11-24T04:16:31.831Z,97.80
2022-11-24T04:19:00.502Z,97.86
2022-11-24T04:21:29.669Z,97.73
2022-11-24T04:23:58.583Z,97.42
2022-11-24T04:26:32.680Z,97.72
2022-11-24T04:29:01.978Z,97.81
2022-11-24T04:31:30.809Z,98.08
2022-11-24T04:33:59.783Z,98.01
2022-11-24T04:36:28.339Z,98.23
2022-11-24T04:39:25.472Z,97.92
2022-11-24T04:41:47.615Z,97.81
2022-11-24T04:44:16.357Z,97.91
2022-11-24T04:46:45.966Z,97.50
2022-11-24T04:49:15.825Z,97.88
2022-11-24T04:51:44.717Z,97.78
2022-11-24T04:54:14.190Z,97.93
2022-11-24T04:56:43.006Z,98.05
2022-11-24T04:59:15.180Z,98.01
2022-11-24T05:01:44.760Z,98.03
2022-11-24T05:04:15.611Z,97.93
2022-11-24T05:06:45.346Z,98.00
2022-11-24T05:09:16.726Z,97.94
2022-11-24T05:11:45.603Z,98.40
2022-11-24T05:14:14.279Z,98.44
2022-11-24T05:16:42.961Z,98.63
2022-11-24T05:19:11.614Z,97.99
2022-11-24T05:21:40.542Z,98.44
2022-11-24T05:24:11.243Z,98.22
2022-11-24T05:26:39.700Z,98.26
2022-11-24T05:29:08.562Z,98.64
2022-11-24T05:31:38.055Z,98.65
2022-11-24T05:34:07.762Z,98.61
2022-11-24T05:36:56.999Z,98.71
2022-11-24T05:39:25.675Z,98.74
2022-11-24T05:41:54.912Z,98.84
2022-11-24T05:44:24.918Z,98.77
2022-11-24T05:46:56.693Z,98.86
2022-11-24T05:49:25.296Z,98.59
2022-11-24T05:51:53.923Z,98.93
2022-11-24T05:54:22.522Z,98.51
2022-11-24T05:56:51.298Z,98.85
2022-11-24T05:59:19.981Z,98.80
2022-11-24T06:01:49.109Z,98.84
2022-11-24T06:04:17.992Z,98.49
2022-11-24T06:06:47.777Z,98.44
2022-11-24T06:09:18.019Z,98.52
2022-11-24T06:11:49.064Z,98.33
2022-11-24T06:14:17.837Z,98.56
2022-11-24T06:16:46.621Z,98.66
2022-11-24T06:19:18.693Z,98.41
2022-11-24T06:21:47.402Z,98.43
2022-11-24T06:24:18.620Z,98.73
2022-11-24T06:26:47.288Z,98.69
2022-11-24T06:29:16.823Z,98.90
2022-11-24T06:31:45.427Z,99.20
2022-11-24T06:34:14.804Z,99.13
2022-11-24T06:36:43.563Z,99.01
2022-11-24T06:39:13.698Z,99.01
2022-11-24T06:41:42.503Z,99.19
2022-11-24T06:44:11.570Z,99.57
2022-11-24T06:46:41.583Z,99.14
2022-11-24T06:49:10.480Z,99.19
2022-11-24T06:51:43.277Z,99.26
2022-11-24T06:54:16.698Z,99.56
2022-11-24T06:56:46.690Z,99.35
2022-11-24T06:59:20.160Z,99.42
2022-11-24T07:01:48.966Z,99.22
2022-11-24T07:04:17.777Z,99.56
2022-11-24T07:06:47.463Z,99.52
2022-11-24T07:09:17.083Z,99.22
2022-11-24T07:11:45.761Z,99.01
2022-11-24T07:14:15.165Z,99.09
2022-11-24T07:16:45.090Z,99.13
2022-11-24T07:19:14.160Z,99.31
2022-11-24T07:21:44.543Z,99.14
2022-11-24T07:24:13.282Z,99.15
2022-11-24T07:26:42.065Z,99.23
2022-11-24T07:29:10.583Z,99.11
2022-11-24T07:31:39.765Z,99.44
2022-11-24T07:34:08.749Z,99.16
2022-11-24T07:36:39.989Z,99.18
2022-11-24T07:39:08.758Z,99.45
2022-11-24T07:41:37.443Z,99.22
2022-11-24T07:44:06.353Z,99.21
2022-11-24T07:46:35.226Z,99.03
2022-11-24T07:49:04.523Z,98.91
2022-11-24T07:51:33.427Z,98.97
2022-11-24T07:54:02.213Z,99.00
2022-11-24T07:56:30.799Z,99.00
2022-11-24T07:58:59.877Z,98.87
2022-11-24T08:01:28.620Z,98.81
2022-11-24T08:03:57.603Z,99.08
2022-11-24T08:06:38.108Z,99.00
2022-11-24T08:09:08.452Z,99.07
2022-11-24T08:11:37.140Z,99.05
2022-11-24T08:14:06.032Z,98.93
2022-11-24T08:16:36.021Z,98.92
2022-11-24T08:19:04.691Z,98.91
2022-11-24T08:21:34.023Z,98.92
2022-11-24T08:24:02.815Z,98.78
2022-11-24T08:26:31.609Z,98.52
2022-11-24T08:29:00.290Z,98.48
2022-11-24T08:31:34.088Z,98.64
2022-11-24T08:34:04.419Z,98.68
2022-11-24T08:36:35.832Z,98.69
2022-11-24T08:39:05.987Z,98.51
2022-11-24T08:41:34.608Z,98.67
2022-11-24T08:44:04.921Z,98.62
2022-11-24T08:46:36.353Z,98.87
2022-11-24T08:49:05.754Z,98.87
2022-11-24T08:51:34.870Z,98.73
2022-11-24T08:54:04.556Z,98.47
2022-11-24T08:56:34.358Z,98.47
2022-11-24T08:59:04.361Z,98.46
2022-11-24T09:01:33.277Z,98.22
2022-11-24T09:04:02.807Z,98.47
2022-11-24T09:06:32.797Z,98.27
2022-11-24T09:09:01.302Z,98.21
2022-11-24T09:11:31.079Z,97.83
2022-11-24T09:13:59.987Z,97.83
2022-11-24T09:16:29.613Z,98.16
2022-11-24T09:19:01.034Z,97.68
2022-11-24T09:21:32.066Z,97.52
2022-11-24T09:24:01.198Z,97.35
2022-11-24T09:26:32.691Z,97.63
2022-11-24T09:29:04.229Z,97.44
2022-11-24T09:31:35.021Z,97.25
2022-11-24T09:34:09.437Z,97.51
2022-11-24T09:36:38.120Z,97.45
2022-11-24T09:39:07.042Z,97.33
2022-11-24T09:42:02.422Z,96.89
2022-11-24T09:45:11.463Z,96.77
2022-11-24T09:48:00.155Z,96.94
2022-11-24T09:50:33.186Z,97.06
2022-11-24T09:53:24.294Z,96.60
2022-11-24T09:55:59.296Z,96.46
2022-11-24T09:58:49.160Z,96.03
2022-11-24T10:01:20.600Z,96.03
2022-11-24T10:03:51.726Z,95.65
2022-11-24T10:06:25.641Z,95.42
2022-11-24T10:09:20.415Z,95.13
2022-11-24T10:12:04.184Z,94.82
2022-11-24T10:14:43.387Z,95.44
2022-11-24T10:17:54.872Z,95.91
2022-11-24T10:21:11.759Z,95.05
2022-11-24T10:23:46.736Z,95.31
2022-11-24T10:26:20.511Z,94.82
2022-11-24T10:28:58.441Z,94.70
2022-11-24T10:31:38.127Z,94.96
2022-11-24T10:34:27.642Z,94.87
2022-11-24T10:37:00.528Z,94.73
2022-11-24T10:40:04.200Z,94.55
2022-11-24T10:42:37.704Z,95.07
2022-11-24T10:45:25.262Z,94.71
2022-11-24T10:47:54.152Z,94.63
2022-11-24T10:50:33.536Z,94.58
2022-11-24T10:53:17.432Z,94.57
2022-11-24T10:55:55.533Z,94.40
2022-11-24T10:58:37.265Z,94.78
2022-11-24T11:01:15.896Z,94.41
2022-11-24T11:03:56.321Z,93.72
2022-11-24T11:06:30.599Z,93.50
2022-11-24T11:09:09.462Z,92.99
2022-11-24T11:11:40.256Z,92.97
2022-11-24T11:14:11.453Z,93.23
2022-11-24T11:16:58.283Z,92.66
2022-11-24T11:19:49.443Z,93.14
2022-11-24T11:22:26.306Z,93.06
2022-11-24T11:25:07.498Z,92.81
2022-11-24T11:27:36.296Z,92.69
2022-11-24T11:36:14.346Z,92.78
2022-11-24T11:38:44.352Z,92.63
2022-11-24T11:41:45.401Z,92.57
2022-11-24T11:44:29.536Z,92.75
2022-11-24T11:46:59.810Z,92.81
2022-11-24T11:49:28.659Z,92.90
2022-11-24T11:52:09.935Z,92.96
2022-11-24T11:55:08.935Z,93.64
2022-11-24T11:57:56.278Z,93.26
2022-11-24T12:00:25.450Z,93.51
2022-11-24T12:03:14.418Z,93.45
2022-11-24T12:05:49.655Z,93.75
2022-11-24T12:09:17.980Z,93.19
2022-11-24T12:12:07.301Z,93.69
2022-11-24T12:14:54.009Z,93.13
2022-11-24T12:17:44.197Z,93.07
2022-11-24T12:20:44.421Z,92.85
2022-11-24T12:23:33.695Z,93.02
2022-11-24T12:26:16.609Z,93.20
2022-11-24T12:29:20.137Z,93.06
2022-11-24T12:32:21.756Z,92.97
2022-11-24T12:35:43.705Z,92.77
2022-11-24T12:38:41.240Z,92.57
2022-11-24T12:41:42.601Z,92.21
2022-11-24T12:44:50.742Z,91.92
2022-11-24T12:47:32.935Z,92.02
2022-11-24T12:50:19.427Z,91.79
2022-11-24T12:52:58.420Z,91.35
2022-11-24T12:55:35.335Z,91.63
2022-11-24T12:58:32.700Z,91.84
2022-11-24T13:01:17.234Z,91.27
2022-11-24T13:04:04.911Z,91.22
2022-11-24T13:07:45.626Z,91.35
2022-11-24T13:10:54.179Z,91.42
2022-11-24T13:13:19.597Z,91.02
2022-11-24T13:18:48.147Z,91.43
2022-11-24T13:21:29.782Z,91.11
2022-11-24T13:24:05.281Z,91.58
2022-11-24T13:26:42.716Z,91.65
2022-11-24T13:29:48.788Z,92.14
2022-11-24T13:32:21.464Z,91.68
2022-11-24T13:34:55.301Z,92.14
2022-11-24T13:37:31.220Z,92.15
2022-11-24T13:40:24.277Z,91.91
2022-11-24T13:42:56.567Z,92.20
2022-11-24T13:45:41.184Z,92.20
2022-11-24T13:48:22.585Z,92.13
2022-11-24T13:50:52.315Z,92.38
2022-11-24T13:53:50.196Z,92.03
2022-11-24T13:56:18.849Z,92.36
2022-11-24T13:58:54.777Z,92.09
2022-11-24T14:01:33.982Z,92.60
2022-11-24T14:04:34.014Z,92.81
2022-11-24T14:07:09.360Z,92.87
2022-11-24T14:09:46.204Z,92.68
2022-11-24T14:12:20.609Z,92.71
2022-11-24T14:14:52.281Z,92.91
2022-11-24T14:17:25.902Z,92.73
2022-11-24T14:19:56.702Z,92.66
2022-11-24T14:22:32.336Z,92.57
2022-11-24T14:25:02.592Z,92.56
2022-11-24T14:27:36.872Z,92.80
2022-11-24T14:30:09.428Z,92.77
2022-11-24T14:32:38.339Z,93.04
2022-11-24T14:35:42.572Z,93.23
2022-11-24T14:38:12.803Z,93.12
2022-11-24T14:40:53.061Z,93.14
2022-11-24T14:43:30.530Z,93.51
2022-11-24T14:46:07.522Z,93.45
2022-11-24T14:48:37.683Z,93.42
2022-11-24T14:51:12.262Z,93.27
2022-11-24T14:53:44.440Z,93.52
2022-11-24T14:56:25.625Z,93.54
2022-11-24T14:58:55.736Z,93.56
2022-11-24T15:01:27.452Z,93.59
2022-11-24T15:04:26.942Z,93.68
2022-11-24T15:07:06.517Z,93.82
2022-11-24T15:09:40.172Z,93.76
2022-11-24T15:12:11.672Z,94.11
2022-11-24T15:14:55.336Z,94.23
2022-11-24T15:17:26.665Z,94.19
2022-11-24T15:20:17.154Z,94.28
2022-11-24T15:22:47.170Z,94.12
2022-11-24T15:25:22.782Z,93.92
2022-11-24T15:27:52.343Z,93.93
2022-11-24T15:30:23.571Z,93.79
2022-11-24T15:32:57.477Z,94.09
2022-11-24T15:35:31.199Z,93.86
2022-11-24T15:38:00.092Z,93.58
2022-11-24T15:40:28.857Z,93.71
2022-11-24T15:43:00.741Z,94.09
2022-11-24T15:45:35.139Z,93.66
2022-11-24T15:48:03.737Z,93.57
2022-11-24T15:50:32.618Z,93.52
2022-11-24T15:53:01.298Z,93.58
2022-11-24T15:55:29.986Z,93.79
2022-11-24T15:57:58.901Z,93.92
2022-11-24T16:00:31.028Z,93.91
2022-11-24T16:03:38.459Z,93.76
2022-11-24T16:05:56.275Z,93.56
2022-11-24T16:08:25.562Z,93.97
2022-11-24T16:10:54.866Z,94.17
2022-11-24T16:13:24.208Z,94.38
2022-11-24T16:15:52.996Z,94.44
2022-11-24T16:18:22.254Z,94.50
2022-11-24T16:20:51.681Z,94.06
2022-11-24T16:23:20.852Z,94.48
2022-11-24T16:25:49.955Z,94.55
2022-11-24T16:28:21.105Z,94.77
2022-11-24T16:30:51.519Z,94.99
2022-11-24T16:33:20.510Z,94.60
2022-11-24T16:35:52.103Z,95.00
2022-11-24T16:38:22.749Z,94.74
2022-11-24T16:40:55.501Z,94.97
2022-11-24T16:43:26.342Z,94.66
2022-11-24T16:46:14.081Z,95.16
2022-11-24T16:48:43.359Z,94.64
2022-11-24T16:51:13.095Z,95.39
2022-11-24T16:53:42.374Z,95.40
2022-11-24T16:56:12.545Z,95.27
2022-11-24T16:58:41.584Z,95.42
2022-11-24T17:01:20.438Z,95.72
2022-11-24T17:03:49.698Z,95.51
2022-11-24T17:06:18.896Z,95.82
2022-11-24T17:08:51.673Z,95.76
2022-11-24T17:11:24.842Z,95.95
2022-11-24T17:13:54.879Z,96.27
2022-11-24T17:16:24.971Z,96.34
2022-11-24T17:18:54.938Z,97.06
2022-11-24T17:21:26.079Z,96.88
2022-11-24T17:24:00.354Z,97.02
2022-11-24T17:26:29.451Z,97.07
2022-11-24T17:28:59.072Z,97.55
2022-11-24T17:31:41.536Z,97.57
2022-11-24T17:34:14.271Z,97.85
2022-11-24T17:36:46.372Z,97.99
2022-11-24T17:39:18.103Z,97.65
2022-11-24T17:41:56.299Z,97.85
2022-11-24T17:44:26.099Z,98.39
2022-11-24T17:46:56.081Z,98.22
2022-11-24T17:49:25.238Z,97.97
2022-11-24T17:51:54.738Z,98.14
2022-11-24T17:54:45.212Z,97.91
2022-11-24T17:57:14.926Z,98.16
2022-11-24T17:59:46.148Z,97.92
2022-11-24T18:02:15.097Z,97.99
2022-11-24T18:04:44.677Z,97.99
2022-11-24T18:07:13.913Z,97.73
2022-11-24T18:09:45.053Z,97.64
2022-11-24T18:12:14.716Z,97.92
2022-11-24T18:14:43.716Z,97.85
2022-11-24T18:17:13.117Z,97.61
2022-11-24T18:19:43.038Z,97.51
2022-11-24T18:22:12.537Z,97.54
2022-11-24T18:24:42.346Z,97.29
2022-11-24T18:27:11.622Z,97.42
2022-11-24T18:29:42.616Z,97.23
2022-11-24T18:32:12.577Z,97.18
2022-11-24T18:34:42.234Z,97.31
2022-11-24T18:37:16.017Z,97.12
2022-11-24T18:39:46.171Z,97.26
2022-11-24T18:42:17.758Z,97.10
2022-11-24T18:44:52.740Z,97.41
2022-11-24T18:47:24.702Z,96.92
2022-11-24T18:49:54.594Z,96.91
2022-11-24T18:52:24.640Z,96.71
2022-11-24T18:54:54.679Z,96.61
2022-11-24T18:57:25.482Z,96.69
2022-11-24T18:59:56.197Z,97.01
2022-11-24T19:02:31.400Z,96.47
2022-11-24T19:05:04.148Z,96.92
2022-11-24T19:07:34.793Z,97.08
2022-11-24T19:10:05.290Z,96.89
2022-11-24T19:12:35.417Z,96.50
2022-11-24T19:15:07.695Z,96.29
2022-11-24T19:17:37.426Z,96.55
2022-11-24T19:20:07.801Z,96.69
2022-11-24T19:22:37.996Z,96.54
2022-11-24T19:25:10.501Z,96.80
2022-11-24T19:27:40.665Z,96.90
2022-11-24T19:30:10.661Z,97.03
2022-11-24T19:32:40.869Z,97.00
2022-11-24T19:35:12.120Z,96.95
2022-11-24T19:37:43.904Z,96.83
2022-11-24T19:40:15.599Z,96.51
2022-11-24T19:42:48.732Z,97.14
2022-11-24T19:45:21.087Z,97.06
2022-11-24T19:47:55.573Z,97.12
2022-11-24T19:50:26.946Z,97.56
2022-11-24T19:52:57.268Z,97.59
2022-11-24T19:55:28.533Z,97.64
2022-11-24T19:57:59.048Z,97.73
2022-11-24T20:00:32.072Z,97.59
2022-11-24T20:03:02.642Z,97.90
2022-11-24T20:05:42.504Z,97.73
2022-11-24T20:08:22.963Z,97.70
2022-11-24T20:10:55.498Z,97.80
2022-11-24T20:13:28.599Z,97.93
2022-11-24T20:16:06.234Z,97.49
2022-11-24T20:18:41.578Z,97.63
2022-11-24T20:21:17.694Z,97.77
2022-11-24T20:23:53.677Z,98.05
2022-11-24T20:26:25.909Z,97.55
2022-11-24T20:28:57.203Z,97.74
2022-11-24T20:31:30.529Z,98.08
2022-11-24T20:34:02.260Z,98.30
2022-11-24T20:36:36.032Z,97.99
2022-11-24T20:39:08.624Z,97.98
2022-11-24T20:41:39.733Z,98.15
2022-11-24T20:44:14.078Z,98.22
2022-11-24T20:46:46.080Z,98.19
2022-11-24T20:49:20.079Z,98.20
2022-11-24T20:51:50.818Z,98.11
2022-11-24T20:54:19.900Z,98.16
2022-11-24T20:56:49.818Z,98.11
2022-11-24T20:59:24.223Z,98.03
2022-11-24T21:01:57.335Z,98.13
2022-11-24T21:04:29.514Z,97.91
2022-11-24T21:06:59.224Z,98.32
2022-11-24T21:09:32.430Z,98.14
2022-11-24T21:12:02.901Z,98.19
2022-11-24T21:14:35.381Z,98.28
2022-11-24T21:17:06.327Z,98.19
2022-11-24T21:19:35.344Z,98.11
2022-11-24T21:22:04.720Z,97.95
2022-11-24T21:24:34.455Z,97.85
2022-11-24T21:27:04.579Z,98.04
2022-11-24T21:29:34.179Z,98.27
2022-11-24T21:32:02.932Z,97.99
2022-11-24T21:34:31.963Z,98.14
2022-11-24T21:37:01.402Z,98.05
2022-11-24T21:39:30.319Z,98.15
2022-11-24T21:42:00.048Z,97.91
2022-11-24T21:44:31.649Z,98.10
2022-11-24T21:47:00.415Z,98.37
2022-11-24T21:49:29.195Z,98.30
2022-11-24T21:52:00.024Z,97.96
2022-11-24T21:54:29.122Z,97.90
2022-11-24T21:56:57.597Z,97.91
2022-11-24T21:59:26.367Z,98.05
2022-11-24T22:01:58.082Z,98.24
2022-11-24T22:04:26.845Z,98.18
2022-11-24T22:06:55.919Z,97.89
2022-11-24T22:09:24.618Z,98.25
2022-11-24T22:11:53.702Z,98.23
2022-11-24T22:14:22.301Z,98.35
2022-11-24T22:16:51.208Z,98.24
2022-11-24T22:19:21.000Z,98.28
2022-11-24T22:21:50.068Z,98.57
2022-11-24T22:24:22.993Z,98.41
2022-11-24T22:26:55.255Z,98.07
2022-11-24T22:29:24.020Z,98.29
2022-11-24T22:31:52.984Z,98.04
2022-11-24T22:34:22.043Z,98.20
2022-11-24T22:36:51.092Z,98.45
2022-11-24T22:39:20.837Z,98.33
2022-11-24T22:41:50.143Z,98.41
2022-11-24T22:44:19.541Z,98.38
2022-11-24T22:46:48.522Z,98.60
2022-11-24T22:49:17.303Z,98.88
2022-11-24T22:51:46.079Z,99.02
2022-11-24T22:54:14.886Z,98.78
2022-11-24T22:56:43.753Z,98.74
2022-11-24T22:59:12.776Z,99.09
2022-11-24T23:01:41.425Z,99.36
2022-11-24T23:04:10.261Z,99.12
2022-11-24T23:06:39.335Z,99.14
2022-11-24T23:09:11.526Z,99.00
2022-11-24T23:11:41.819Z,99.01
2022-11-24T23:14:15.624Z,99.03
2022-11-24T23:16:44.877Z,99.15
2022-11-24T23:19:13.633Z,99.18
2022-11-24T23:21:42.638Z,99.36
2022-11-24T23:24:11.754Z,99.47
2022-11-24T23:26:41.884Z,99.30
2022-11-24T23:29:11.217Z,99.48
2022-11-24T23:31:43.018Z,99.39
2022-11-24T23:34:12.065Z,98.91
2022-11-24T23:36:40.959Z,98.96
2022-11-24T23:39:13.695Z,98.96
2022-11-24T23:41:42.779Z,98.84
2022-11-24T23:44:13.686Z,99.09
2022-11-24T23:46:42.390Z,99.00
2022-11-24T23:49:11.362Z,98.98
2022-11-24T23:51:42.402Z,99.02
2022-11-24T23:54:14.340Z,99.20
2022-11-24T23:56:43.027Z,98.52
2022-11-24T23:59:12.897Z,99.21
